Time;durP1;ratioP1;P1;durP2;ratioP2;P2;SDS_P1;SDS_P2;PMS_P1;PMS_P2;Temp;Humidity;BMP_temperature;BMP_pressure;BME280_temperature;BME280_humidity;BME280_pressure;Samples;Min_cycle;Max_cycle;Signal;HPM_P1;HPM_P2
2023/09/16 00:01:25;;;;;;;5.93;4.43;;;;;;;;;;5017386;28;20835;-53
2023/09/16 00:03:51;;;;;;;5.27;4.33;;;;;;;;;;5017654;28;20325;-53
2023/09/16 00:06:17;;;;;;;5.40;4.30;;;;;;;;;;5014317;28;20198;-54
2023/09/16 00:08:43;;;;;;;4.40;4.00;;;;;;;;;;5014352;28;20264;-54
2023/09/16 00:11:10;;;;;;;4.87;4.37;;;;;;;;;;5014193;28;20201;-54
2023/09/16 00:13:36;;;;;;;6.93;4.30;;;;;;;;;;5014458;28;20197;-54
2023/09/16 00:16:04;;;;;;;6.70;4.70;;;;;;;;;;5014217;28;20710;-54
2023/09/16 00:18:31;;;;;;;4.97;4.47;;;;;;;;;;5014200;28;20558;-54
2023/09/16 00:20:57;;;;;;;4.30;4.00;;;;;;;;;;5014048;28;20198;-54
2023/09/16 00:23:23;;;;;;;5.43;4.50;;;;;;;;;;5013984;28;20200;-54
2023/09/16 00:25:49;;;;;;;4.40;4.03;;;;;;;;;;5014179;28;20197;-54
2023/09/16 00:28:15;;;;;;;5.23;4.10;;;;;;;;;;5012656;28;20206;-53
2023/09/16 00:30:43;;;;;;;7.30;4.20;;;;;;;;;;5013867;28;20205;-54
2023/09/16 00:33:10;;;;;;;6.30;4.23;;;;;;;;;;5013841;28;20308;-54
2023/09/16 00:35:36;;;;;;;4.67;3.83;;;;;;;;;;5013813;28;20255;-53
2023/09/16 00:38:02;;;;;;;4.83;4.40;;;;;;;;;;5013805;28;20295;-53
2023/09/16 00:40:28;;;;;;;5.13;4.33;;;;;;;;;;5013735;28;20683;-54
2023/09/16 00:42:54;;;;;;;5.87;4.77;;;;;;;;;;5013630;28;20201;-54
2023/09/16 00:45:20;;;;;;;4.97;4.50;;;;;;;;;;5013597;28;20193;-53
2023/09/16 00:47:47;;;;;;;4.77;4.30;;;;;;;;;;5013835;28;20205;-54
2023/09/16 00:50:17;;;;;;;5.23;4.73;;;;;;;;;;5013454;28;20206;-54
2023/09/16 00:52:45;;;;;;;4.57;3.87;;;;;;;;;;5013546;28;20722;-54
2023/09/16 00:55:11;;;;;;;4.53;4.13;;;;;;;;;;5013339;28;20320;-54
2023/09/16 00:57:39;;;;;;;5.60;4.20;;;;;;;;;;5013363;28;20193;-54
2023/09/16 01:00:07;;;;;;;6.83;4.50;;;;;;;;;;5013426;28;20202;-54
2023/09/16 01:02:34;;;;;;;4.33;4.03;;;;;;;;;;5013615;28;20263;-54
2023/09/16 01:05:03;;;;;;;4.50;4.10;;;;;;;;;;5013572;28;20196;-54
2023/09/16 01:07:31;;;;;;;5.10;4.60;;;;;;;;;;5013389;28;20280;-53
2023/09/16 01:09:57;;;;;;;6.57;4.40;;;;;;;;;;5013285;28;20209;-53
2023/09/16 01:12:24;;;;;;;5.17;4.53;;;;;;;;;;5013056;28;20202;-53
2023/09/16 01:14:50;;;;;;;4.80;4.30;;;;;;;;;;5013203;28;20233;-53
2023/09/16 01:17:21;;;;;;;4.87;4.37;;;;;;;;;;5012930;28;20742;-54
2023/09/16 01:19:50;;;;;;;5.03;4.60;;;;;;;;;;5013174;28;20260;-54
2023/09/16 01:22:16;;;;;;;4.60;4.20;;;;;;;;;;5013304;28;20202;-53
2023/09/16 01:24:51;;;;;;;4.70;4.20;;;;;;;;;;5012921;28;20194;-53
2023/09/16 01:27:18;;;;;;;4.67;4.23;;;;;;;;;;5013012;28;20201;-53
2023/09/16 01:29:44;;;;;;;4.80;4.33;;;;;;;;;;5012726;28;20554;-53
2023/09/16 01:32:11;;;;;;;4.90;4.50;;;;;;;;;;5012973;28;20225;-53
2023/09/16 01:34:40;;;;;;;4.53;4.07;;;;;;;;;;5012378;28;20737;-53
2023/09/16 01:37:07;;;;;;;4.70;4.30;;;;;;;;;;5012365;28;20733;-53
2023/09/16 01:39:34;;;;;;;4.43;4.03;;;;;;;;;;5012745;28;20204;-53
2023/09/16 01:42:01;;;;;;;5.23;4.13;;;;;;;;;;5012556;28;20619;-53
2023/09/16 01:44:28;;;;;;;5.33;4.73;;;;;;;;;;5012244;28;20799;-53
2023/09/16 01:46:54;;;;;;;4.27;3.80;;;;;;;;;;5012394;28;20296;-54
2023/09/16 01:49:20;;;;;;;4.67;4.27;;;;;;;;;;5012391;28;20260;-54
2023/09/16 01:51:46;;;;;;;4.50;4.10;;;;;;;;;;5012633;28;20201;-53
2023/09/16 01:54:12;;;;;;;4.43;4.03;;;;;;;;;;5012119;28;20221;-53
2023/09/16 01:56:38;;;;;;;4.40;4.00;;;;;;;;;;5012234;28;20661;-53
2023/09/16 01:59:04;;;;;;;4.47;4.07;;;;;;;;;;5012306;28;20201;-53
2023/09/16 02:01:32;;;;;;;4.80;4.17;;;;;;;;;;5012229;28;20204;-53
2023/09/16 02:03:58;;;;;;;4.40;4.00;;;;;;;;;;5012125;28;20190;-53
2023/09/16 02:06:24;;;;;;;4.93;4.07;;;;;;;;;;5012033;28;20248;-53
2023/09/16 02:08:50;;;;;;;4.87;4.43;;;;;;;;;;5012162;28;20288;-53
2023/09/16 02:11:16;;;;;;;4.27;3.87;;;;;;;;;;5011978;28;20206;-54
2023/09/16 02:13:42;;;;;;;6.27;4.20;;;;;;;;;;5011909;28;20256;-53
2023/09/16 02:16:10;;;;;;;4.53;4.13;;;;;;;;;;5011582;28;20233;-54
2023/09/16 02:18:37;;;;;;;4.20;3.80;;;;;;;;;;5012081;28;20271;-54
2023/09/16 02:21:03;;;;;;;4.67;4.27;;;;;;;;;;5012166;28;20288;-54
2023/09/16 02:23:30;;;;;;;4.20;3.80;;;;;;;;;;5011962;28;20201;-54
2023/09/16 02:25:59;;;;;;;4.83;3.93;;;;;;;;;;5012089;28;20225;-54
2023/09/16 02:28:25;;;;;;;5.20;3.93;;;;;;;;;;5011126;28;20267;-53
2023/09/16 02:30:51;;;;;;;4.23;3.83;;;;;;;;;;5011720;28;20672;-53
2023/09/16 02:33:17;;;;;;;4.27;3.87;;;;;;;;;;5011647;28;20243;-53
2023/09/16 02:35:45;;;;;;;5.40;3.80;;;;;;;;;;5011527;28;20226;-53
2023/09/16 02:38:11;;;;;;;5.20;4.70;;;;;;;;;;5011251;28;20788;-53
2023/09/16 02:40:39;;;;;;;4.63;4.23;;;;;;;;;;5011677;28;20216;-53
2023/09/16 02:43:05;;;;;;;4.70;4.33;;;;;;;;;;5011686;28;20201;-53
2023/09/16 02:45:31;;;;;;;4.73;3.60;;;;;;;;;;5011492;28;20198;-53
2023/09/16 02:47:57;;;;;;;4.60;4.20;;;;;;;;;;5011537;28;20687;-53
2023/09/16 02:50:23;;;;;;;4.80;4.40;;;;;;;;;;5011342;28;20406;-53
2023/09/16 02:52:50;;;;;;;4.87;4.47;;;;;;;;;;5011543;28;20576;-53
2023/09/16 02:55:16;;;;;;;4.43;4.03;;;;;;;;;;5011318;28;20229;-54
2023/09/16 02:57:42;;;;;;;4.47;4.03;;;;;;;;;;5011285;28;20210;-53
2023/09/16 03:00:09;;;;;;;4.63;4.23;;;;;;;;;;5011211;28;20217;-53
2023/09/16 03:02:35;;;;;;;4.73;4.27;;;;;;;;;;5011415;28;20205;-53
2023/09/16 03:05:01;;;;;;;4.77;3.90;;;;;;;;;;5011397;28;20284;-53
2023/09/16 03:07:27;;;;;;;4.47;4.07;;;;;;;;;;5011314;28;20213;-53
2023/09/16 03:09:54;;;;;;;4.73;4.13;;;;;;;;;;5011266;28;20198;-53
2023/09/16 03:12:22;;;;;;;4.60;4.20;;;;;;;;;;5011235;28;20212;-53
2023/09/16 03:14:48;;;;;;;5.23;4.23;;;;;;;;;;5011476;28;20702;-53
2023/09/16 03:17:14;;;;;;;5.00;4.33;;;;;;;;;;5011114;28;20202;-53
2023/09/16 03:19:40;;;;;;;4.70;4.20;;;;;;;;;;5011215;28;20232;-53
2023/09/16 03:22:06;;;;;;;5.00;4.47;;;;;;;;;;5011397;28;20193;-53
2023/09/16 03:24:32;;;;;;;5.90;4.40;;;;;;;;;;5011228;28;20276;-54
2023/09/16 03:26:59;;;;;;;4.97;3.80;;;;;;;;;;5011140;28;20664;-53
2023/09/16 03:29:29;;;;;;;4.67;4.17;;;;;;;;;;5010961;28;20198;-54
2023/09/16 03:31:55;;;;;;;4.90;4.20;;;;;;;;;;5011058;28;20256;-54
2023/09/16 03:34:21;;;;;;;4.97;4.47;;;;;;;;;;5011093;28;20292;-54
2023/09/16 03:36:47;;;;;;;5.00;4.50;;;;;;;;;;5011187;28;20197;-53
2023/09/16 03:39:13;;;;;;;5.23;4.20;;;;;;;;;;5010825;28;20789;-54
2023/09/16 03:41:39;;;;;;;4.77;4.13;;;;;;;;;;5013022;28;20206;-53
2023/09/16 03:44:06;;;;;;;4.83;4.23;;;;;;;;;;5014738;28;20252;-53
2023/09/16 03:46:32;;;;;;;4.83;4.33;;;;;;;;;;5014681;28;20206;-53
2023/09/16 03:48:58;;;;;;;4.70;4.30;;;;;;;;;;5014568;28;20229;-53
2023/09/16 03:51:26;;;;;;;5.07;4.53;;;;;;;;;;5014429;28;20248;-54
2023/09/16 03:53:53;;;;;;;4.93;4.20;;;;;;;;;;5014556;28;20233;-53
2023/09/16 03:56:19;;;;;;;4.43;4.03;;;;;;;;;;5014448;28;20229;-53
2023/09/16 03:58:45;;;;;;;5.03;4.40;;;;;;;;;;5014507;28;20198;-54
2023/09/16 04:01:12;;;;;;;5.17;4.37;;;;;;;;;;5014717;28;20406;-53
2023/09/16 04:03:38;;;;;;;4.60;4.13;;;;;;;;;;5014376;28;20206;-54
2023/09/16 04:06:04;;;;;;;5.77;4.53;;;;;;;;;;5014368;28;20186;-53
2023/09/16 04:08:31;;;;;;;5.23;4.40;;;;;;;;;;5014205;28;20660;-53
2023/09/16 04:10:57;;;;;;;4.43;4.03;;;;;;;;;;5014213;28;20197;-53
2023/09/16 04:13:23;;;;;;;4.50;4.10;;;;;;;;;;5014000;28;20550;-53
2023/09/16 04:15:49;;;;;;;5.90;4.30;;;;;;;;;;5014210;28;20261;-53
2023/09/16 04:18:19;;;;;;;4.57;4.17;;;;;;;;;;5013993;28;20194;-54
2023/09/16 04:20:46;;;;;;;6.10;4.63;;;;;;;;;;5014246;28;20201;-54
2023/09/16 04:23:12;;;;;;;4.53;3.90;;;;;;;;;;5013930;28;20675;-54
2023/09/16 04:25:38;;;;;;;4.90;4.40;;;;;;;;;;5013970;28;20200;-53
2023/09/16 04:28:05;;;;;;;4.63;4.20;;;;;;;;;;5013990;28;20267;-53
2023/09/16 04:30:31;;;;;;;4.63;4.23;;;;;;;;;;5013738;28;20205;-54
2023/09/16 04:32:58;;;;;;;4.27;3.87;;;;;;;;;;5013656;28;20217;-53
2023/09/16 04:35:26;;;;;;;5.00;4.47;;;;;;;;;;5013131;28;20229;-54
2023/09/16 04:37:52;;;;;;;4.63;4.17;;;;;;;;;;5013646;28;20241;-53
2023/09/16 04:40:20;;;;;;;4.40;4.00;;;;;;;;;;5013862;28;20192;-54
2023/09/16 04:42:46;;;;;;;4.83;4.37;;;;;;;;;;5013605;28;20572;-54
2023/09/16 04:45:12;;;;;;;5.83;4.60;;;;;;;;;;5013559;28;20197;-54
2023/09/16 04:47:38;;;;;;;4.93;4.30;;;;;;;;;;5013774;28;20288;-54
2023/09/16 04:50:04;;;;;;;4.33;3.90;;;;;;;;;;5013662;28;20284;-54
2023/09/16 04:52:31;;;;;;;4.50;4.10;;;;;;;;;;5012841;28;20201;-53
2023/09/16 04:54:57;;;;;;;4.83;4.20;;;;;;;;;;5013310;28;20316;-53
2023/09/16 04:57:24;;;;;;;5.67;4.27;;;;;;;;;;5013338;28;20256;-54
2023/09/16 04:59:51;;;;;;;6.13;4.50;;;;;;;;;;5013328;28;20206;-54
2023/09/16 05:02:17;;;;;;;4.77;4.37;;;;;;;;;;5013330;28;20272;-54
2023/09/16 05:04:43;;;;;;;4.93;4.43;;;;;;;;;;5013205;28;20198;-53
2023/09/16 05:07:09;;;;;;;4.97;4.47;;;;;;;;;;5012773;28;20213;-53
2023/09/16 05:09:37;;;;;;;4.97;4.30;;;;;;;;;;5012464;28;20202;-53
2023/09/16 05:12:04;;;;;;;5.00;4.57;;;;;;;;;;5013158;28;20205;-53
2023/09/16 05:14:30;;;;;;;4.87;4.40;;;;;;;;;;5012917;28;20719;-53
2023/09/16 05:16:56;;;;;;;4.53;4.10;;;;;;;;;;5012921;28;20664;-53
2023/09/16 05:19:22;;;;;;;4.77;4.27;;;;;;;;;;5012867;28;20209;-53
2023/09/16 05:21:48;;;;;;;6.40;4.37;;;;;;;;;;5012920;28;20197;-53
2023/09/16 05:24:14;;;;;;;5.20;4.50;;;;;;;;;;5012851;28;20267;-53
2023/09/16 05:26:41;;;;;;;4.93;4.40;;;;;;;;;;5012711;28;20583;-53
2023/09/16 05:29:07;;;;;;;5.03;4.50;;;;;;;;;;5012688;28;20198;-53
2023/09/16 05:31:33;;;;;;;4.77;4.37;;;;;;;;;;5012752;28;20276;-53
2023/09/16 05:33:59;;;;;;;6.87;4.20;;;;;;;;;;5012658;28;20269;-53
2023/09/16 05:36:27;;;;;;;4.70;4.20;;;;;;;;;;5012523;28;20325;-53
2023/09/16 05:38:53;;;;;;;5.43;4.50;;;;;;;;;;5012213;28;20249;-50
2023/09/16 05:41:19;;;;;;;5.07;4.57;;;;;;;;;;5012596;28;20341;-56
2023/09/16 05:43:47;;;;;;;4.90;4.50;;;;;;;;;;5012568;28;20224;-54
2023/09/16 05:46:15;;;;;;;4.30;3.90;;;;;;;;;;5012345;28;20273;-53
2023/09/16 05:48:42;;;;;;;5.33;4.17;;;;;;;;;;5012876;28;20236;-53
2023/09/16 05:51:10;;;;;;;4.90;4.40;;;;;;;;;;5012550;28;20566;-54
2023/09/16 05:53:36;;;;;;;5.00;4.50;;;;;;;;;;5012792;28;20213;-53
2023/09/16 05:56:04;;;;;;;5.00;4.60;;;;;;;;;;5012525;28;20284;-53
2023/09/16 05:58:31;;;;;;;5.23;4.73;;;;;;;;;;5012643;28;20288;-54
2023/09/16 06:00:58;;;;;;;4.73;4.23;;;;;;;;;;5010310;28;20202;-53
2023/09/16 06:03:24;;;;;;;5.27;4.77;;;;;;;;;;5011014;28;20742;-54
2023/09/16 06:05:56;;;;;;;4.90;4.40;;;;;;;;;;5012050;28;20203;-54
2023/09/16 06:08:22;;;;;;;6.53;4.70;;;;;;;;;;5011908;28;20208;-53
2023/09/16 06:10:48;;;;;;;4.70;4.30;;;;;;;;;;5011830;28;20262;-54
2023/09/16 06:13:14;;;;;;;5.13;4.60;;;;;;;;;;5011224;28;20197;-53
2023/09/16 06:15:40;;;;;;;5.00;4.27;;;;;;;;;;5011009;28;20253;-53
2023/09/16 06:18:07;;;;;;;4.93;4.13;;;;;;;;;;5011215;28;20197;-53
2023/09/16 06:20:33;;;;;;;4.90;4.50;;;;;;;;;;5011323;28;20205;-53
2023/09/16 06:23:03;;;;;;;6.27;5.00;;;;;;;;;;5011316;28;20292;-53
2023/09/16 06:25:29;;;;;;;5.60;4.70;;;;;;;;;;5011090;28;20760;-53
2023/09/16 06:27:56;;;;;;;5.67;5.07;;;;;;;;;;5011227;28;20213;-53
2023/09/16 06:30:22;;;;;;;4.57;4.17;;;;;;;;;;5011007;28;20201;-53
2023/09/16 06:32:48;;;;;;;5.07;4.60;;;;;;;;;;5011269;28;20264;-53
2023/09/16 06:35:15;;;;;;;5.10;4.60;;;;;;;;;;5010872;28;20699;-54
2023/09/16 06:37:41;;;;;;;5.50;4.40;;;;;;;;;;5010734;28;20245;-53
2023/09/16 06:40:08;;;;;;;5.67;4.50;;;;;;;;;;5010897;28;20263;-54
2023/09/16 06:42:34;;;;;;;4.93;4.30;;;;;;;;;;5010922;28;20202;-53
2023/09/16 06:45:00;;;;;;;5.27;4.77;;;;;;;;;;5010944;28;20200;-53
2023/09/16 06:47:29;;;;;;;5.27;4.47;;;;;;;;;;5010692;28;20198;-53
2023/09/16 06:49:56;;;;;;;4.63;4.20;;;;;;;;;;5010850;28;20198;-53
2023/09/16 06:52:26;;;;;;;5.93;4.30;;;;;;;;;;5011049;28;20202;-53
2023/09/16 06:54:52;;;;;;;4.80;4.40;;;;;;;;;;5010740;28;20229;-53
2023/09/16 06:57:18;;;;;;;4.60;4.20;;;;;;;;;;5010826;28;20205;-53
2023/09/16 06:59:47;;;;;;;4.70;4.30;;;;;;;;;;5010610;28;20197;-53
2023/09/16 07:02:13;;;;;;;4.73;4.33;;;;;;;;;;5010646;28;20197;-53
2023/09/16 07:04:40;;;;;;;5.13;4.20;;;;;;;;;;5010747;28;20201;-53
2023/09/16 07:07:06;;;;;;;4.20;3.80;;;;;;;;;;5010736;28;20205;-53
2023/09/16 07:09:34;;;;;;;4.30;3.90;;;;;;;;;;5010672;28;20513;-53
2023/09/16 07:12:00;;;;;;;5.03;4.37;;;;;;;;;;5010875;28;20288;-53
2023/09/16 07:14:26;;;;;;;4.37;3.97;;;;;;;;;;5010594;28;20241;-53
2023/09/16 07:16:52;;;;;;;5.03;4.53;;;;;;;;;;5014717;28;20229;-53
2023/09/16 07:19:18;;;;;;;5.97;4.40;;;;;;;;;;5014622;28;20239;-53
2023/09/16 07:21:44;;;;;;;4.60;4.03;;;;;;;;;;5014503;28;20201;-53
2023/09/16 07:24:10;;;;;;;7.13;4.87;;;;;;;;;;5014553;28;20293;-53
2023/09/16 07:26:37;;;;;;;5.13;3.90;;;;;;;;;;5014331;28;20198;-53
2023/09/16 07:29:03;;;;;;;4.60;4.20;;;;;;;;;;5014531;28;20652;-53
2023/09/16 07:31:29;;;;;;;6.90;4.27;;;;;;;;;;5014171;28;20207;-53
2023/09/16 07:33:55;;;;;;;5.23;4.13;;;;;;;;;;5014257;28;20657;-53
2023/09/16 07:36:21;;;;;;;4.73;3.90;;;;;;;;;;5014163;28;20284;-53
2023/09/16 07:38:47;;;;;;;5.47;4.37;;;;;;;;;;5014236;28;20238;-53
2023/09/16 07:41:13;;;;;;;4.27;3.97;;;;;;;;;;5014095;28;20217;-53
2023/09/16 07:43:41;;;;;;;4.80;4.17;;;;;;;;;;5014112;28;20192;-53
2023/09/16 07:46:07;;;;;;;4.80;4.37;;;;;;;;;;5014003;28;20222;-53
2023/09/16 07:48:33;;;;;;;5.83;4.17;;;;;;;;;;5014252;28;20615;-52
2023/09/16 07:50:59;;;;;;;5.00;3.87;;;;;;;;;;5014079;28;20202;-53
2023/09/16 07:53:25;;;;;;;5.70;3.90;;;;;;;;;;5014168;28;20198;-53
2023/09/16 07:55:56;;;;;;;4.57;4.10;;;;;;;;;;5014334;28;20603;-53
2023/09/16 07:58:22;;;;;;;4.40;4.00;;;;;;;;;;5012601;28;20233;-53
2023/09/16 08:00:50;;;;;;;7.53;4.53;;;;;;;;;;5014386;28;20656;-53
2023/09/16 08:03:16;;;;;;;5.53;4.97;;;;;;;;;;5014265;28;20213;-53
2023/09/16 08:05:44;;;;;;;4.33;3.93;;;;;;;;;;5014210;28;20220;-53
2023/09/16 08:08:10;;;;;;;4.63;3.83;;;;;;;;;;5013860;28;20588;-53
2023/09/16 08:10:36;;;;;;;4.30;3.80;;;;;;;;;;5013818;28;20231;-53
2023/09/16 08:13:02;;;;;;;4.43;4.03;;;;;;;;;;5014059;28;20652;-53
2023/09/16 08:15:28;;;;;;;5.47;4.30;;;;;;;;;;5013506;28;20809;-53
2023/09/16 08:17:55;;;;;;;5.37;3.90;;;;;;;;;;5013301;28;20294;-54
2023/09/16 08:20:21;;;;;;;4.43;3.83;;;;;;;;;;5013164;28;20308;-53
2023/09/16 08:22:47;;;;;;;5.17;4.17;;;;;;;;;;5013542;28;20275;-54
2023/09/16 08:25:13;;;;;;;4.97;4.33;;;;;;;;;;5013216;28;20204;-54
2023/09/16 08:27:40;;;;;;;5.10;3.90;;;;;;;;;;5012458;28;20203;-51
2023/09/16 08:30:06;;;;;;;4.77;4.27;;;;;;;;;;5013230;28;20609;-52
2023/09/16 08:32:33;;;;;;;6.17;3.83;;;;;;;;;;5012977;28;20197;-52
2023/09/16 08:35:01;;;;;;;4.10;3.70;;;;;;;;;;5012880;28;20239;-52
2023/09/16 08:37:27;;;;;;;4.90;3.63;;;;;;;;;;5012742;28;20241;-52
2023/09/16 08:39:53;;;;;;;5.90;4.10;;;;;;;;;;5012822;28;20642;-52
2023/09/16 08:42:22;;;;;;;5.17;3.70;;;;;;;;;;5012882;28;20555;-52
2023/09/16 08:44:50;;;;;;;4.30;3.50;;;;;;;;;;5013076;28;20198;-52
2023/09/16 08:47:32;;;;;;;4.53;3.40;;;;;;;;;;5012844;28;20247;-52
2023/09/16 08:50:04;;;;;;;3.60;3.30;;;;;;;;;;5011511;28;20642;-52
2023/09/16 08:52:33;;;;;;;3.43;3.00;;;;;;;;;;5012686;28;20217;-52
2023/09/16 08:55:00;;;;;;;4.57;3.27;;;;;;;;;;5012531;28;20307;-52
2023/09/16 08:57:26;;;;;;;4.17;3.50;;;;;;;;;;5012370;28;20256;-53
2023/09/16 08:59:53;;;;;;;3.87;3.40;;;;;;;;;;5012586;28;20193;-52
2023/09/16 09:02:19;;;;;;;3.73;3.20;;;;;;;;;;5012692;28;20202;-52
2023/09/16 09:04:45;;;;;;;4.50;3.53;;;;;;;;;;5012867;28;20206;-54
2023/09/16 09:07:14;;;;;;;4.50;3.43;;;;;;;;;;5012720;28;20190;-52
2023/09/16 09:09:40;;;;;;;3.63;2.97;;;;;;;;;;5012846;28;20299;-52
2023/09/16 09:12:06;;;;;;;3.30;2.93;;;;;;;;;;5012790;28;20425;-52
2023/09/16 09:14:32;;;;;;;3.90;3.50;;;;;;;;;;5012536;28;20266;-52
2023/09/16 09:17:02;;;;;;;4.17;2.70;;;;;;;;;;5012258;28;20695;-52
2023/09/16 09:19:28;;;;;;;3.87;3.43;;;;;;;;;;5012333;28;20196;-53
2023/09/16 09:21:56;;;;;;;3.97;3.00;;;;;;;;;;5012173;28;20235;-53
2023/09/16 09:24:24;;;;;;;6.77;3.23;;;;;;;;;;5012494;28;20200;-53
2023/09/16 09:26:50;;;;;;;3.40;2.97;;;;;;;;;;5012623;28;20205;-52
2023/09/16 09:29:16;;;;;;;3.50;2.90;;;;;;;;;;5012321;28;20193;-52
2023/09/16 09:31:42;;;;;;;3.67;2.90;;;;;;;;;;5012481;28;20284;-53
2023/09/16 09:34:15;;;;;;;3.40;2.97;;;;;;;;;;5012048;28;20224;-53
2023/09/16 09:36:41;;;;;;;4.47;3.00;;;;;;;;;;5012152;28;20596;-53
2023/09/16 09:39:09;;;;;;;3.30;3.00;;;;;;;;;;5011970;28;20321;-53
2023/09/16 09:41:43;;;;;;;4.87;2.83;;;;;;;;;;5012309;28;20490;-53
2023/09/16 09:44:10;;;;;;;4.83;3.20;;;;;;;;;;5012042;28;20197;-53
2023/09/16 09:46:36;;;;;;;5.00;3.00;;;;;;;;;;5012036;28;20230;-53
2023/09/16 09:49:02;;;;;;;3.83;3.33;;;;;;;;;;5012052;28;20201;-53
2023/09/16 09:51:28;;;;;;;4.23;2.90;;;;;;;;;;5011697;28;20257;-53
2023/09/16 09:53:54;;;;;;;3.23;2.80;;;;;;;;;;5011876;28;20234;-53
2023/09/16 09:56:21;;;;;;;3.57;2.70;;;;;;;;;;5011685;28;20283;-52
2023/09/16 09:58:49;;;;;;;3.13;2.87;;;;;;;;;;5011872;28;20251;-52
2023/09/16 10:01:15;;;;;;;3.37;2.80;;;;;;;;;;5011665;28;20234;-53
2023/09/16 10:03:47;;;;;;;5.27;2.90;;;;;;;;;;5011604;28;20226;-53
2023/09/16 10:06:14;;;;;;;4.37;2.40;;;;;;;;;;5011679;28;20201;-53
2023/09/16 10:08:40;;;;;;;4.80;2.97;;;;;;;;;;5010189;28;20635;-53
2023/09/16 10:11:06;;;;;;;5.27;2.73;;;;;;;;;;5011618;28;20200;-53
2023/09/16 10:13:32;;;;;;;2.87;2.53;;;;;;;;;;5011560;28;20196;-53
2023/09/16 10:16:05;;;;;;;2.83;2.63;;;;;;;;;;5011254;28;20299;-53
2023/09/16 10:18:31;;;;;;;5.23;2.70;;;;;;;;;;5011520;28;20239;-53
2023/09/16 10:20:57;;;;;;;4.03;2.83;;;;;;;;;;5011276;28;20220;-53
2023/09/16 10:23:23;;;;;;;3.00;2.70;;;;;;;;;;5011146;28;20212;-53
2023/09/16 10:25:50;;;;;;;3.10;2.80;;;;;;;;;;5011593;28;20217;-53
2023/09/16 10:28:17;;;;;;;2.83;2.53;;;;;;;;;;5011249;28;20208;-53
2023/09/16 10:30:45;;;;;;;4.07;2.57;;;;;;;;;;5011383;28;20204;-53
2023/09/16 10:33:12;;;;;;;3.33;2.63;;;;;;;;;;5011214;28;20205;-53
2023/09/16 10:35:39;;;;;;;5.00;2.50;;;;;;;;;;5010585;28;20232;-53
2023/09/16 10:38:06;;;;;;;2.70;2.50;;;;;;;;;;5010757;28;20238;-53
2023/09/16 10:40:32;;;;;;;2.73;2.50;;;;;;;;;;5010803;28;20193;-53
2023/09/16 10:42:58;;;;;;;2.70;2.50;;;;;;;;;;5010630;28;20256;-53
2023/09/16 10:45:25;;;;;;;4.10;2.43;;;;;;;;;;5010379;28;20248;-53
2023/09/16 10:47:52;;;;;;;3.03;2.37;;;;;;;;;;5010752;28;20233;-53
2023/09/16 10:50:24;;;;;;;4.13;2.70;;;;;;;;;;5010287;28;20225;-53
2023/09/16 10:52:52;;;;;;;3.30;2.43;;;;;;;;;;5010724;28;20240;-53
2023/09/16 10:55:22;;;;;;;4.07;2.43;;;;;;;;;;5010501;28;20310;-53
2023/09/16 10:57:52;;;;;;;4.97;2.50;;;;;;;;;;5010700;28;20208;-54
2023/09/16 11:00:21;;;;;;;2.80;2.53;;;;;;;;;;5010661;28;20201;-53
2023/09/16 11:02:51;;;;;;;2.53;2.33;;;;;;;;;;5010756;28;20228;-52
2023/09/16 11:05:17;;;;;;;2.23;2.10;;;;;;;;;;5010762;28;20208;-52
2023/09/16 11:07:45;;;;;;;3.00;2.60;;;;;;;;;;5010466;28;20200;-53
2023/09/16 11:10:11;;;;;;;2.40;2.20;;;;;;;;;;5010260;28;20622;-53
2023/09/16 11:12:38;;;;;;;3.10;2.23;;;;;;;;;;5010290;28;20200;-53
2023/09/16 11:15:10;;;;;;;4.00;2.30;;;;;;;;;;5010591;28;20286;-53
2023/09/16 11:17:37;;;;;;;2.90;2.10;;;;;;;;;;5010202;28;20200;-53
2023/09/16 11:20:13;;;;;;;2.80;2.30;;;;;;;;;;5010502;28;20200;-53
2023/09/16 11:22:40;;;;;;;3.27;2.10;;;;;;;;;;5010430;28;20200;-53
2023/09/16 11:25:11;;;;;;;6.43;2.20;;;;;;;;;;5010346;28;20220;-53
2023/09/16 11:27:37;;;;;;;2.80;2.10;;;;;;;;;;5010458;28;20204;-53
2023/09/16 11:30:10;;;;;;;2.43;2.10;;;;;;;;;;5010424;28;20210;-53
2023/09/16 11:32:36;;;;;;;3.77;2.40;;;;;;;;;;5010184;28;20228;-53
2023/09/16 11:35:03;;;;;;;2.40;2.20;;;;;;;;;;5010293;28;20323;-53
2023/09/16 11:37:30;;;;;;;2.30;2.10;;;;;;;;;;5009814;28;20237;-53
2023/09/16 11:40:00;;;;;;;3.40;2.10;;;;;;;;;;5010143;28;20473;-53
2023/09/16 11:42:28;;;;;;;3.80;2.20;;;;;;;;;;5009967;28;20204;-53
2023/09/16 11:44:55;;;;;;;2.43;2.20;;;;;;;;;;5010101;28;20416;-53
2023/09/16 11:47:21;;;;;;;2.17;2.00;;;;;;;;;;5010136;28;20220;-53
2023/09/16 11:49:48;;;;;;;3.23;2.20;;;;;;;;;;5010338;28;20193;-53
2023/09/16 11:52:15;;;;;;;4.43;1.90;;;;;;;;;;5010130;28;20213;-53
2023/09/16 11:54:41;;;;;;;3.30;2.63;;;;;;;;;;5010018;28;20214;-53
2023/09/16 11:57:08;;;;;;;3.20;2.37;;;;;;;;;;5009854;28;20227;-52
2023/09/16 11:59:35;;;;;;;4.37;2.40;;;;;;;;;;5010104;28;20202;-53
2023/09/16 12:02:02;;;;;;;2.87;2.20;;;;;;;;;;5011165;28;20198;-53
2023/09/16 12:04:28;;;;;;;2.60;2.40;;;;;;;;;;5013460;28;20208;-53
2023/09/16 12:06:54;;;;;;;2.40;2.20;;;;;;;;;;5013486;28;20197;-53
2023/09/16 12:09:22;;;;;;;2.30;2.10;;;;;;;;;;5013471;28;20284;-53
2023/09/16 12:11:51;;;;;;;2.53;2.33;;;;;;;;;;5013730;28;20225;-53
2023/09/16 12:14:17;;;;;;;2.53;2.33;;;;;;;;;;5013233;28;20208;-52
2023/09/16 12:16:45;;;;;;;2.10;1.77;;;;;;;;;;5013149;28;20631;-52
2023/09/16 12:19:11;;;;;;;2.40;2.20;;;;;;;;;;5013185;28;20205;-52
2023/09/16 12:21:45;;;;;;;2.30;1.97;;;;;;;;;;5012987;28;20203;-52
2023/09/16 12:24:15;;;;;;;5.30;2.40;;;;;;;;;;5012984;28;20685;-52
2023/09/16 12:26:41;;;;;;;3.27;2.30;;;;;;;;;;5012912;28;20197;-52
2023/09/16 12:29:08;;;;;;;4.33;2.40;;;;;;;;;;5012824;28;20202;-52
2023/09/16 12:31:34;;;;;;;2.30;2.00;;;;;;;;;;5013164;28;20216;-52
2023/09/16 12:34:01;;;;;;;2.03;1.83;;;;;;;;;;5012879;28;20195;-52
2023/09/16 12:36:28;;;;;;;2.17;2.00;;;;;;;;;;5012459;28;20241;-52
2023/09/16 12:38:55;;;;;;;2.30;2.10;;;;;;;;;;5012544;28;20294;-52
2023/09/16 12:41:21;;;;;;;2.83;2.23;;;;;;;;;;5012737;28;20209;-52
2023/09/16 12:43:48;;;;;;;2.57;2.17;;;;;;;;;;5012827;28;20195;-52
2023/09/16 12:46:15;;;;;;;2.93;2.20;;;;;;;;;;5012648;28;20208;-52
2023/09/16 12:48:42;;;;;;;2.40;2.10;;;;;;;;;;5012550;28;20276;-52
2023/09/16 12:51:10;;;;;;;2.10;1.90;;;;;;;;;;5012438;28;20275;-52
2023/09/16 12:53:36;;;;;;;2.53;2.30;;;;;;;;;;5012484;28;20289;-52
2023/09/16 12:56:05;;;;;;;2.40;2.10;;;;;;;;;;5012481;28;20627;-52
2023/09/16 12:58:31;;;;;;;2.50;2.30;;;;;;;;;;5012386;28;20238;-52
2023/09/16 13:00:57;;;;;;;2.27;2.07;;;;;;;;;;5012454;28;20667;-52
2023/09/16 13:03:23;;;;;;;2.10;2.00;;;;;;;;;;5012273;28;20204;-52
2023/09/16 13:05:50;;;;;;;2.40;2.10;;;;;;;;;;5012546;28;20247;-52
2023/09/16 13:08:19;;;;;;;2.73;2.07;;;;;;;;;;5012471;28;20209;-52
2023/09/16 13:10:46;;;;;;;2.63;2.30;;;;;;;;;;5012460;28;20220;-52
2023/09/16 13:13:12;;;;;;;3.63;2.43;;;;;;;;;;5011928;28;20206;-54
2023/09/16 13:15:41;;;;;;;2.87;2.20;;;;;;;;;;5011687;28;20287;-52
2023/09/16 13:18:08;;;;;;;3.43;2.20;;;;;;;;;;5011725;28;20200;-52
2023/09/16 13:20:36;;;;;;;2.50;2.30;;;;;;;;;;5011948;28;20659;-52
2023/09/16 13:23:02;;;;;;;5.17;2.37;;;;;;;;;;5012090;28;20575;-52
2023/09/16 13:25:32;;;;;;;4.40;2.30;;;;;;;;;;5011629;28;20215;-52
2023/09/16 13:28:05;;;;;;;4.77;2.37;;;;;;;;;;5011736;28;20622;-53
2023/09/16 13:30:33;;;;;;;2.57;2.37;;;;;;;;;;5011878;28;20255;-53
2023/09/16 13:32:59;;;;;;;2.23;2.03;;;;;;;;;;5011735;28;20247;-53
2023/09/16 13:35:25;;;;;;;2.90;2.70;;;;;;;;;;5010092;28;20260;-53
2023/09/16 13:37:51;;;;;;;3.40;2.43;;;;;;;;;;5011550;28;20256;-53
2023/09/16 13:40:21;;;;;;;3.13;2.83;;;;;;;;;;5011674;28;20677;-53
2023/09/16 13:42:49;;;;;;;4.00;2.13;;;;;;;;;;5011730;28;20209;-53
2023/09/16 13:45:15;;;;;;;2.50;2.30;;;;;;;;;;5011501;28;20203;-53
2023/09/16 13:47:41;;;;;;;4.30;2.73;;;;;;;;;;5011855;28;20436;-53
2023/09/16 13:50:07;;;;;;;2.50;2.30;;;;;;;;;;5011951;28;20205;-53
2023/09/16 13:52:33;;;;;;;2.63;2.13;;;;;;;;;;5011885;28;20615;-53
2023/09/16 13:54:59;;;;;;;5.03;2.93;;;;;;;;;;5011676;28;20674;-53
2023/09/16 13:57:25;;;;;;;3.03;2.40;;;;;;;;;;5011696;28;20199;-53
2023/09/16 13:59:53;;;;;;;4.27;2.40;;;;;;;;;;5011886;28;20207;-53
2023/09/16 14:02:19;;;;;;;3.00;2.67;;;;;;;;;;5011801;28;20304;-53
2023/09/16 14:04:45;;;;;;;2.67;2.47;;;;;;;;;;5011626;28;20701;-53
2023/09/16 14:07:11;;;;;;;3.90;3.00;;;;;;;;;;5011753;28;20215;-53
2023/09/16 14:09:37;;;;;;;2.47;2.27;;;;;;;;;;5011525;28;20211;-53
2023/09/16 14:12:03;;;;;;;3.67;2.50;;;;;;;;;;5011692;28;20199;-53
2023/09/16 14:14:29;;;;;;;3.13;2.47;;;;;;;;;;5011444;28;20287;-53
2023/09/16 14:16:56;;;;;;;3.60;2.17;;;;;;;;;;5011360;28;20792;-53
2023/09/16 14:19:22;;;;;;;4.53;2.77;;;;;;;;;;5011458;28;20216;-53
2023/09/16 14:21:48;;;;;;;3.43;2.50;;;;;;;;;;5011654;28;20330;-54
2023/09/16 14:24:15;;;;;;;3.40;3.10;;;;;;;;;;5010762;28;20200;-54
2023/09/16 14:26:41;;;;;;;3.40;3.07;;;;;;;;;;5011000;28;20206;-54
2023/09/16 14:29:07;;;;;;;3.83;3.40;;;;;;;;;;5011361;28;20664;-54
2023/09/16 14:31:33;;;;;;;4.00;2.60;;;;;;;;;;5011301;28;20209;-53
2023/09/16 14:34:00;;;;;;;2.70;2.37;;;;;;;;;;5011134;28;20209;-54
2023/09/16 14:36:26;;;;;;;3.27;2.70;;;;;;;;;;5010846;28;20238;-54
2023/09/16 14:38:52;;;;;;;2.73;2.53;;;;;;;;;;5010929;28;20241;-54
2023/09/16 14:41:19;;;;;;;2.53;2.33;;;;;;;;;;5011302;28;20206;-54